Time;durP1;ratioP1;P1;durP2;ratioP2;P2;SDS_P1;SDS_P2;PMS_P1;PMS_P2;Temp;Humidity;BMP_temperature;BMP_pressure;BME280_temperature;BME280_humidity;BME280_pressure;Samples;Min_cycle;Max_cycle;Signal;HPM_P1;HPM_P2
2022/03/05 00:01:50;;;;;;;16.66;8.32;;;;;;;;;;5046274;28;20021;-81
2022/03/05 00:04:16;;;;;;;17.45;7.28;;;;;;;;;;5062524;28;20496;-81
2022/03/05 00:06:42;;;;;;;20.85;7.22;;;;;;;;;;5060747;28;20032;-81
2022/03/05 00:09:07;;;;;;;17.27;7.13;;;;;;;;;;5044940;28;20020;-81
2022/03/05 00:11:32;;;;;;;16.85;7.80;;;;;;;;;;5063053;28;20041;-81
2022/03/05 00:13:57;;;;;;;16.63;7.47;;;;;;;;;;5062616;28;20163;-82
2022/03/05 00:16:23;;;;;;;19.95;7.28;;;;;;;;;;5056832;28;20104;-79
2022/03/05 00:18:49;;;;;;;15.10;7.18;;;;;;;;;;5036324;28;20029;-79
2022/03/05 00:21:14;;;;;;;17.67;7.28;;;;;;;;;;5052931;28;20082;-78
2022/03/05 00:23:39;;;;;;;18.25;7.07;;;;;;;;;;5051095;28;20033;-79
2022/03/05 00:26:05;;;;;;;19.17;8.07;;;;;;;;;;5056942;28;20069;-80
2022/03/05 00:28:30;;;;;;;21.17;7.88;;;;;;;;;;5069478;28;20051;-83
2022/03/05 00:31:00;;;;;;;15.25;6.15;;;;;;;;;;5056016;28;20044;-81
2022/03/05 00:33:25;;;;;;;17.65;7.28;;;;;;;;;;5052910;28;20025;-79
2022/03/05 00:35:50;;;;;;;17.25;7.57;;;;;;;;;;5034436;28;20365;-78
2022/03/05 00:38:15;;;;;;;16.25;7.22;;;;;;;;;;5052319;28;20103;-78
2022/03/05 00:40:41;;;;;;;17.88;7.40;;;;;;;;;;5053799;28;20024;-79
2022/03/05 00:43:06;;;;;;;18.80;8.00;;;;;;;;;;5056581;28;20384;-79
2022/03/05 00:45:31;;;;;;;16.23;7.35;;;;;;;;;;5039324;28;20052;-80
2022/03/05 00:47:57;;;;;;;24.90;8.32;;;;;;;;;;5056175;28;20020;-79
2022/03/05 00:50:22;;;;;;;20.35;8.13;;;;;;;;;;5055980;28;20074;-79
2022/03/05 00:52:47;;;;;;;16.70;7.95;;;;;;;;;;5055594;28;20021;-79
2022/03/05 00:55:12;;;;;;;18.77;7.68;;;;;;;;;;5056243;28;20013;-78
2022/03/05 00:57:37;;;;;;;17.70;8.00;;;;;;;;;;5055434;28;20479;-79
2022/03/05 01:00:03;;;;;;;15.13;7.22;;;;;;;;;;5055639;28;20472;-78
2022/03/05 01:02:30;;;;;;;15.52;7.15;;;;;;;;;;5037335;28;20480;-78
2022/03/05 01:04:56;;;;;;;18.27;7.10;;;;;;;;;;5037709;28;20027;-78
2022/03/05 01:07:21;;;;;;;18.67;8.18;;;;;;;;;;5055326;28;20017;-78
2022/03/05 01:09:46;;;;;;;19.77;7.07;;;;;;;;;;5055564;28;20104;-80
2022/03/05 01:12:11;;;;;;;14.75;6.93;;;;;;;;;;5056361;28;20039;-81
2022/03/05 01:14:36;;;;;;;17.23;7.43;;;;;;;;;;5047199;28;20021;-81
2022/03/05 01:17:02;;;;;;;20.42;7.60;;;;;;;;;;5066580;28;20021;-81
2022/03/05 01:19:27;;;;;;;16.85;7.63;;;;;;;;;;5068036;28;20020;-80
2022/03/05 01:21:52;;;;;;;14.25;7.10;;;;;;;;;;5069526;28;20075;-81
2022/03/05 01:24:18;;;;;;;16.30;7.05;;;;;;;;;;5063166;28;20013;-78
2022/03/05 01:26:43;;;;;;;20.92;8.13;;;;;;;;;;5055200;28;20070;-79
2022/03/05 01:29:09;;;;;;;16.88;6.78;;;;;;;;;;5054308;28;20028;-79
2022/03/05 01:31:34;;;;;;;15.70;7.72;;;;;;;;;;5037257;28;20551;-77
2022/03/05 01:34:00;;;;;;;16.08;6.88;;;;;;;;;;5055172;28;20094;-79
2022/03/05 01:36:25;;;;;;;16.55;7.63;;;;;;;;;;5062852;28;20419;-81
2022/03/05 01:38:50;;;;;;;15.65;7.07;;;;;;;;;;5060354;28;20070;-81
2022/03/05 01:41:15;;;;;;;15.43;7.45;;;;;;;;;;5040940;28;20024;-80
2022/03/05 01:43:41;;;;;;;20.73;7.05;;;;;;;;;;5057963;28;20044;-79
2022/03/05 01:46:06;;;;;;;14.70;5.93;;;;;;;;;;5055542;28;20380;-80
2022/03/05 01:48:31;;;;;;;16.83;6.68;;;;;;;;;;5056484;28;20523;-80
2022/03/05 01:50:56;;;;;;;13.18;5.53;;;;;;;;;;5055947;28;20020;-79
2022/03/05 01:53:21;;;;;;;15.23;6.15;;;;;;;;;;5055409;28;20015;-80
2022/03/05 01:55:47;;;;;;;12.15;5.72;;;;;;;;;;5038456;28;20357;-82
2022/03/05 01:58:12;;;;;;;13.65;6.13;;;;;;;;;;5057203;28;20059;-80
2022/03/05 02:00:37;;;;;;;15.02;6.10;;;;;;;;;;5056736;28;20671;-81
2022/03/05 02:03:03;;;;;;;13.48;5.95;;;;;;;;;;5053708;28;20104;-77
2022/03/05 02:05:28;;;;;;;13.10;6.00;;;;;;;;;;5037173;28;20491;-79
2022/03/05 02:07:53;;;;;;;14.90;5.95;;;;;;;;;;5036593;28;20025;-79
2022/03/05 02:10:18;;;;;;;12.18;5.22;;;;;;;;;;5054261;28;20096;-79
2022/03/05 02:12:44;;;;;;;13.93;5.13;;;;;;;;;;5054215;28;20519;-79
2022/03/05 02:15:10;;;;;;;13.75;5.65;;;;;;;;;;5054700;28;20407;-79
2022/03/05 02:17:36;;;;;;;11.85;6.05;;;;;;;;;;5036829;28;20021;-80
2022/03/05 02:20:02;;;;;;;13.50;5.38;;;;;;;;;;5035728;28;20500;-79
2022/03/05 02:22:27;;;;;;;13.63;5.28;;;;;;;;;;5035997;28;20074;-79
2022/03/05 02:24:55;;;;;;;11.82;5.28;;;;;;;;;;5054210;28;20021;-79
2022/03/05 02:27:21;;;;;;;10.75;5.10;;;;;;;;;;5054341;28;20392;-79
2022/03/05 02:29:47;;;;;;;11.85;5.13;;;;;;;;;;5054438;28;20017;-78
2022/03/05 02:32:12;;;;;;;9.02;4.50;;;;;;;;;;5036008;28;20024;-78
2022/03/05 02:34:37;;;;;;;11.20;4.20;;;;;;;;;;5053658;28;20017;-79
2022/03/05 02:37:02;;;;;;;10.57;4.43;;;;;;;;;;5055102;28;20092;-80
2022/03/05 02:39:27;;;;;;;10.82;4.47;;;;;;;;;;5054138;28;20109;-80
2022/03/05 02:41:53;;;;;;;8.90;4.38;;;;;;;;;;5054106;28;20044;-77
2022/03/05 02:44:19;;;;;;;10.00;3.95;;;;;;;;;;5054893;28;20017;-77
2022/03/05 02:46:44;;;;;;;11.52;4.28;;;;;;;;;;5037551;28;20376;-78
2022/03/05 02:49:09;;;;;;;12.00;4.15;;;;;;;;;;5054826;28;20013;-80
2022/03/05 02:51:35;;;;;;;13.15;5.20;;;;;;;;;;5052175;28;20136;-79
2022/03/05 02:54:00;;;;;;;12.32;4.63;;;;;;;;;;5053458;28;20139;-78
2022/03/05 02:56:25;;;;;;;9.90;3.95;;;;;;;;;;5036035;28;20053;-79
2022/03/05 02:58:51;;;;;;;10.80;4.00;;;;;;;;;;5036075;28;20021;-79
2022/03/05 03:01:16;;;;;;;8.55;3.80;;;;;;;;;;5035899;28;20024;-79
2022/03/05 03:03:41;;;;;;;12.60;4.13;;;;;;;;;;5035220;28;20029;-80
2022/03/05 03:06:06;;;;;;;15.88;4.72;;;;;;;;;;5035556;28;20025;-79
2022/03/05 03:08:31;;;;;;;9.32;4.15;;;;;;;;;;5052027;28;20028;-80
2022/03/05 03:10:57;;;;;;;11.20;4.28;;;;;;;;;;5035742;28;20013;-79
2022/03/05 03:13:23;;;;;;;13.63;4.75;;;;;;;;;;5035313;28;20025;-80
2022/03/05 03:15:48;;;;;;;8.88;3.65;;;;;;;;;;5036094;28;20104;-79
2022/03/05 03:18:15;;;;;;;9.52;3.45;;;;;;;;;;5053707;28;20021;-79
2022/03/05 03:20:40;;;;;;;9.02;4.07;;;;;;;;;;5036174;28;20065;-79
2022/03/05 03:23:05;;;;;;;9.70;3.53;;;;;;;;;;5053085;28;20055;-79
2022/03/05 03:25:31;;;;;;;8.40;4.10;;;;;;;;;;5052663;28;20145;-79
2022/03/05 03:27:56;;;;;;;9.07;3.58;;;;;;;;;;5054393;28;20467;-77
2022/03/05 03:30:21;;;;;;;7.68;3.40;;;;;;;;;;5036264;28;20547;-78
2022/03/05 03:32:47;;;;;;;6.85;3.35;;;;;;;;;;5035993;28;20031;-77
2022/03/05 03:35:13;;;;;;;9.15;3.70;;;;;;;;;;5053782;28;20013;-77
2022/03/05 03:37:39;;;;;;;8.02;3.85;;;;;;;;;;5035697;28;20179;-78
2022/03/05 03:40:06;;;;;;;7.55;3.17;;;;;;;;;;5053987;28;20049;-78
2022/03/05 03:42:31;;;;;;;9.18;3.53;;;;;;;;;;5035925;28;20032;-79
2022/03/05 03:44:57;;;;;;;9.27;3.65;;;;;;;;;;5053028;28;20033;-79
2022/03/05 03:47:22;;;;;;;8.15;3.25;;;;;;;;;;5057288;28;20028;-81
2022/03/05 03:49:48;;;;;;;8.50;4.13;;;;;;;;;;5043275;28;20021;-80
2022/03/05 03:52:13;;;;;;;8.63;3.38;;;;;;;;;;5059690;28;20040;-81
2022/03/05 03:54:39;;;;;;;10.15;4.20;;;;;;;;;;5059017;28;20395;-80
2022/03/05 03:57:04;;;;;;;9.63;3.85;;;;;;;;;;5059394;28;20020;-80
2022/03/05 03:59:29;;;;;;;8.95;3.83;;;;;;;;;;5054615;28;20500;-78
2022/03/05 04:01:55;;;;;;;11.73;3.80;;;;;;;;;;5052595;28;20495;-78
2022/03/05 04:04:20;;;;;;;15.68;4.95;;;;;;;;;;5052624;28;20033;-77
2022/03/05 04:09:29;;;;;;;8.10;3.25;;;;;;;;;;5053248;28;20546;-77
2022/03/05 04:11:54;;;;;;;10.25;3.80;;;;;;;;;;5052980;28;20024;-78
2022/03/05 04:14:19;;;;;;;6.68;3.30;;;;;;;;;;5053678;28;20025;-78
2022/03/05 04:16:44;;;;;;;8.63;4.57;;;;;;;;;;5060688;28;20025;-78
2022/03/05 04:19:10;;;;;;;9.40;4.15;;;;;;;;;;5060916;28;20132;-80
2022/03/05 04:21:35;;;;;;;8.45;3.60;;;;;;;;;;5048947;28;20362;-81
2022/03/05 04:24:00;;;;;;;7.55;3.38;;;;;;;;;;5047847;28;20116;-80
2022/03/05 04:26:25;;;;;;;6.70;3.45;;;;;;;;;;5065890;28;20395;-80
2022/03/05 04:28:51;;;;;;;10.32;4.45;;;;;;;;;;5065342;28;20459;-80
2022/03/05 04:31:16;;;;;;;8.32;3.67;;;;;;;;;;5065497;28;20384;-80
2022/03/05 04:33:41;;;;;;;8.27;3.72;;;;;;;;;;5045307;28;20296;-80
2022/03/05 04:36:06;;;;;;;11.83;4.43;;;;;;;;;;5064168;28;20017;-80
2022/03/05 04:38:31;;;;;;;11.37;4.47;;;;;;;;;;5061579;28;20032;-79
2022/03/05 04:40:57;;;;;;;9.23;3.83;;;;;;;;;;5059706;28;20160;-78
2022/03/05 04:43:22;;;;;;;12.97;4.80;;;;;;;;;;5059427;28;20472;-79
2022/03/05 04:45:47;;;;;;;11.17;4.27;;;;;;;;;;5059862;28;20024;-79
2022/03/05 04:48:12;;;;;;;8.10;3.87;;;;;;;;;;5060820;28;20029;-79
2022/03/05 04:50:37;;;;;;;9.57;3.73;;;;;;;;;;5059583;28;20044;-79
2022/03/05 04:53:03;;;;;;;10.43;3.60;;;;;;;;;;5059433;28;20099;-79
2022/03/05 04:55:28;;;;;;;11.33;3.67;;;;;;;;;;5042354;28;20021;-80
2022/03/05 04:57:53;;;;;;;7.10;3.63;;;;;;;;;;5059500;28;20082;-79
2022/03/05 05:00:19;;;;;;;10.13;3.97;;;;;;;;;;5041863;28;20059;-79
2022/03/05 05:02:44;;;;;;;7.43;4.17;;;;;;;;;;5060478;28;20076;-79
2022/03/05 05:05:10;;;;;;;10.73;3.47;;;;;;;;;;5059577;28;20036;-80
2022/03/05 05:07:35;;;;;;;12.23;5.00;;;;;;;;;;5058438;28;20021;-80
2022/03/05 05:10:01;;;;;;;9.53;4.43;;;;;;;;;;5041788;28;20506;-79
2022/03/05 05:12:26;;;;;;;6.63;3.90;;;;;;;;;;5058370;28;20053;-79
2022/03/05 05:14:51;;;;;;;7.43;3.63;;;;;;;;;;5058248;28;20090;-79
2022/03/05 05:17:16;;;;;;;7.67;3.90;;;;;;;;;;5058542;28;20032;-80
2022/03/05 05:19:41;;;;;;;7.13;3.70;;;;;;;;;;5060374;28;20019;-79
2022/03/05 05:22:07;;;;;;;10.77;3.97;;;;;;;;;;5040084;28;20024;-79
2022/03/05 05:24:33;;;;;;;7.90;3.60;;;;;;;;;;5039233;28;20471;-78
2022/03/05 05:26:59;;;;;;;9.03;3.90;;;;;;;;;;5054975;28;20538;-79
2022/03/05 05:29:24;;;;;;;8.03;3.63;;;;;;;;;;5054861;28;20171;-79
2022/03/05 05:31:49;;;;;;;8.90;4.20;;;;;;;;;;5054590;28;20528;-79
2022/03/05 05:34:15;;;;;;;9.20;4.13;;;;;;;;;;5054888;28;20025;-79
2022/03/05 05:36:40;;;;;;;9.07;4.10;;;;;;;;;;5055075;28;20385;-80
2022/03/05 05:39:06;;;;;;;8.97;4.10;;;;;;;;;;5054519;28;20017;-79
2022/03/05 05:41:32;;;;;;;8.43;3.63;;;;;;;;;;5037686;28;20090;-80
2022/03/05 05:43:57;;;;;;;9.03;4.30;;;;;;;;;;5037148;28;20472;-79
2022/03/05 05:46:22;;;;;;;8.33;3.87;;;;;;;;;;5055322;28;20017;-79
2022/03/05 05:48:47;;;;;;;8.53;4.00;;;;;;;;;;5057134;28;20041;-79
2022/03/05 05:51:12;;;;;;;16.03;7.00;;;;;;;;;;5056197;28;20219;-79
2022/03/05 05:53:38;;;;;;;12.93;4.93;;;;;;;;;;5037063;28;20472;-79
2022/03/05 05:56:03;;;;;;;8.77;3.70;;;;;;;;;;5054811;28;20092;-79
2022/03/05 05:58:28;;;;;;;13.87;4.37;;;;;;;;;;5057130;28;20503;-80
2022/03/05 06:00:53;;;;;;;6.53;3.43;;;;;;;;;;5056109;28;20032;-79
2022/03/05 06:03:18;;;;;;;8.53;3.70;;;;;;;;;;5054496;28;20099;-79
2022/03/05 06:05:44;;;;;;;14.17;4.13;;;;;;;;;;5054401;28;20032;-78
2022/03/05 06:08:09;;;;;;;10.07;4.23;;;;;;;;;;5036847;28;20017;-78
2022/03/05 06:10:34;;;;;;;7.47;3.50;;;;;;;;;;5056046;28;20021;-78
2022/03/05 06:12:59;;;;;;;8.77;4.10;;;;;;;;;;5036311;28;20613;-78
2022/03/05 06:15:25;;;;;;;10.37;4.03;;;;;;;;;;5055365;28;20020;-79
2022/03/05 06:17:50;;;;;;;8.00;3.70;;;;;;;;;;5055728;28;20024;-78
2022/03/05 06:20:15;;;;;;;10.50;4.17;;;;;;;;;;5055803;28;20021;-78
2022/03/05 06:22:40;;;;;;;8.47;4.17;;;;;;;;;;5055389;28;20099;-78
2022/03/05 06:25:06;;;;;;;7.53;4.23;;;;;;;;;;5057410;28;20021;-81
2022/03/05 06:27:31;;;;;;;8.63;4.23;;;;;;;;;;5061050;28;20035;-81
2022/03/05 06:29:57;;;;;;;10.02;4.65;;;;;;;;;;5058511;28;20021;-80
2022/03/05 06:32:22;;;;;;;10.52;4.80;;;;;;;;;;5037541;28;20104;-80
2022/03/05 06:34:47;;;;;;;9.20;4.57;;;;;;;;;;5054965;28;20048;-80
2022/03/05 06:37:13;;;;;;;11.68;4.57;;;;;;;;;;5037075;28;20021;-80
2022/03/05 06:39:38;;;;;;;9.55;4.45;;;;;;;;;;5055437;28;20456;-80
2022/03/05 06:42:03;;;;;;;10.93;4.88;;;;;;;;;;5053856;28;20017;-78
2022/03/05 06:44:28;;;;;;;8.80;4.43;;;;;;;;;;5074383;28;20260;-82
2022/03/05 06:46:54;;;;;;;10.45;4.20;;;;;;;;;;5074265;28;20013;-79
2022/03/05 06:49:19;;;;;;;10.05;4.88;;;;;;;;;;5053560;28;20472;-79
2022/03/05 06:51:44;;;;;;;11.10;4.60;;;;;;;;;;5035672;28;20443;-78
2022/03/05 06:54:09;;;;;;;8.60;3.67;;;;;;;;;;5036023;28;20015;-79
2022/03/05 06:56:34;;;;;;;9.52;4.82;;;;;;;;;;5035969;28;20021;-79
2022/03/05 06:59:00;;;;;;;10.63;4.60;;;;;;;;;;5054979;28;20105;-79
2022/03/05 07:01:25;;;;;;;10.07;4.18;;;;;;;;;;5058189;28;20017;-83
2022/03/05 07:03:50;;;;;;;10.15;4.03;;;;;;;;;;5062162;28;20029;-79
2022/03/05 07:06:15;;;;;;;7.47;4.03;;;;;;;;;;5054784;28;20452;-79
2022/03/05 07:08:40;;;;;;;11.50;5.70;;;;;;;;;;5052916;28;20133;-79
2022/03/05 07:11:06;;;;;;;12.70;4.85;;;;;;;;;;5053293;28;20021;-79
2022/03/05 07:13:31;;;;;;;9.35;4.53;;;;;;;;;;5052616;28;20024;-79
2022/03/05 07:15:56;;;;;;;10.27;5.00;;;;;;;;;;5035237;28;20017;-79
2022/03/05 07:18:22;;;;;;;16.23;6.53;;;;;;;;;;5053093;28;20426;-79
2022/03/05 07:20:50;;;;;;;11.20;5.38;;;;;;;;;;5052154;28;20053;-79
2022/03/05 07:23:15;;;;;;;12.65;5.65;;;;;;;;;;5053036;28;20025;-79
2022/03/05 07:25:40;;;;;;;12.02;5.43;;;;;;;;;;5053421;28;20530;-79
2022/03/05 07:28:06;;;;;;;14.05;5.60;;;;;;;;;;5053226;28;20021;-80
2022/03/05 07:30:32;;;;;;;12.13;5.47;;;;;;;;;;5050667;28;20021;-80
2022/03/05 07:32:57;;;;;;;13.02;6.13;;;;;;;;;;5050883;28;20024;-79
2022/03/05 07:35:22;;;;;;;12.65;5.28;;;;;;;;;;5045695;28;20465;-79
2022/03/05 07:37:47;;;;;;;11.73;5.53;;;;;;;;;;5035011;28;20013;-77
2022/03/05 07:40:13;;;;;;;10.73;4.35;;;;;;;;;;5032700;28;20528;-77
2022/03/05 07:42:38;;;;;;;7.68;4.88;;;;;;;;;;5032556;28;20488;-78
2022/03/05 07:45:03;;;;;;;7.84;4.42;;;;;;;;;;5032533;28;20381;-77
2022/03/05 07:47:28;;;;;;;9.13;4.32;;;;;;;;;;5032237;28;20056;-77
2022/03/05 07:49:54;;;;;;;9.88;5.07;;;;;;;;;;5031556;28;20511;-76
2022/03/05 07:52:19;;;;;;;11.00;5.57;;;;;;;;;;5014259;28;20021;-77
2022/03/05 07:54:44;;;;;;;8.77;4.60;;;;;;;;;;5052017;28;20035;-76
2022/03/05 07:57:10;;;;;;;9.65;4.45;;;;;;;;;;5034338;28;20472;-77
2022/03/05 07:59:35;;;;;;;10.73;5.30;;;;;;;;;;5034790;28;20423;-76
2022/03/05 08:02:00;;;;;;;9.35;4.70;;;;;;;;;;5055843;28;20025;-82
2022/03/05 08:04:26;;;;;;;9.05;4.30;;;;;;;;;;5065688;28;20017;-81
2022/03/05 08:06:51;;;;;;;10.38;4.82;;;;;;;;;;5045818;28;20496;-83
2022/03/05 08:09:19;;;;;;;15.48;6.97;;;;;;;;;;5064283;28;20016;-82
2022/03/05 08:11:44;;;;;;;10.65;5.15;;;;;;;;;;5067222;28;20021;-81
2022/03/05 08:14:09;;;;;;;46.20;17.38;;;;;;;;;;5065001;28;20009;-82
2022/03/05 08:16:35;;;;;;;32.50;12.93;;;;;;;;;;5068133;28;20021;-82
2022/03/05 08:19:00;;;;;;;17.95;7.03;;;;;;;;;;5066103;28;20052;-83
2022/03/05 08:21:26;;;;;;;20.48;8.90;;;;;;;;;;5068648;28;20111;-83
2022/03/05 08:23:52;;;;;;;23.25;6.70;;;;;;;;;;5050687;28;20092;-82
2022/03/05 08:26:17;;;;;;;16.80;7.18;;;;;;;;;;5046948;28;20025;-83
2022/03/05 08:28:43;;;;;;;17.30;6.70;;;;;;;;;;5068584;28;20025;-83
2022/03/05 08:31:08;;;;;;;22.27;8.55;;;;;;;;;;5068740;28;20020;-82
2022/03/05 08:33:33;;;;;;;19.63;7.82;;;;;;;;;;5048975;28;20453;-82
2022/03/05 08:35:59;;;;;;;19.90;8.77;;;;;;;;;;5066123;28;20017;-82
2022/03/05 08:38:24;;;;;;;19.58;7.32;;;;;;;;;;5049014;28;20029;-81
2022/03/05 08:40:50;;;;;;;14.05;5.80;;;;;;;;;;5046219;28;20025;-82
2022/03/05 08:43:15;;;;;;;13.70;7.20;;;;;;;;;;5065910;28;20029;-82
2022/03/05 08:45:40;;;;;;;14.68;6.07;;;;;;;;;;5060965;28;20017;-81
2022/03/05 08:48:06;;;;;;;15.82;6.40;;;;;;;;;;5060816;28;20062;-81
2022/03/05 08:50:32;;;;;;;14.43;6.35;;;;;;;;;;5044270;28;20017;-81
2022/03/05 08:52:57;;;;;;;13.95;5.65;;;;;;;;;;5047503;28;20032;-82
2022/03/05 08:55:22;;;;;;;16.25;5.65;;;;;;;;;;5044591;28;20026;-82
2022/03/05 08:57:47;;;;;;;14.27;5.97;;;;;;;;;;5043256;28;20092;-81
2022/03/05 09:00:13;;;;;;;16.65;6.28;;;;;;;;;;5060721;28;20599;-82
2022/03/05 09:02:39;;;;;;;9.00;4.68;;;;;;;;;;5046564;28;20032;-82
2022/03/05 09:05:04;;;;;;;17.52;7.30;;;;;;;;;;5065460;28;20052;-82
2022/03/05 09:07:30;;;;;;;13.48;5.68;;;;;;;;;;5067759;28;20029;-81
2022/03/05 09:09:55;;;;;;;8.18;4.45;;;;;;;;;;5048236;28;20021;-82
2022/03/05 09:12:20;;;;;;;12.52;4.93;;;;;;;;;;5067647;28;20024;-81
2022/03/05 09:14:48;;;;;;;9.73;4.45;;;;;;;;;;5068031;28;20055;-81
2022/03/05 09:17:13;;;;;;;9.40;4.70;;;;;;;;;;5067109;28;20104;-81
2022/03/05 09:19:39;;;;;;;9.23;4.15;;;;;;;;;;5066482;28;20484;-82
2022/03/05 09:22:07;;;;;;;12.95;4.38;;;;;;;;;;5069528;28;20025;-80
2022/03/05 09:24:32;;;;;;;13.65;4.32;;;;;;;;;;5042113;28;20072;-81
2022/03/05 09:26:57;;;;;;;7.30;4.05;;;;;;;;;;5059683;28;20476;-82
2022/03/05 09:29:23;;;;;;;9.43;3.90;;;;;;;;;;5063594;28;20021;-81
2022/03/05 09:31:48;;;;;;;9.48;4.32;;;;;;;;;;5044149;28;20035;-81
2022/03/05 09:34:14;;;;;;;10.48;4.18;;;;;;;;;;5061649;28;20025;-81
2022/03/05 09:36:39;;;;;;;12.32;4.72;;;;;;;;;;5061626;28;20017;-81
2022/03/05 09:39:04;;;;;;;10.93;4.35;;;;;;;;;;5061258;28;20078;-81
2022/03/05 09:41:29;;;;;;;11.65;4.57;;;;;;;;;;5061594;28;20028;-81
2022/03/05 09:43:55;;;;;;;10.27;4.40;;;;;;;;;;5063066;28;20028;-82
2022/03/05 09:46:22;;;;;;;11.82;4.18;;;;;;;;;;5072366;28;20079;-82
2022/03/05 09:48:48;;;;;;;7.97;3.50;;;;;;;;;;5067960;28;20013;-82
2022/03/05 09:51:13;;;;;;;10.07;4.82;;;;;;;;;;5069030;28;20028;-82
2022/03/05 09:53:39;;;;;;;6.85;3.28;;;;;;;;;;5056353;28;20037;-83
2022/03/05 09:58:37;;;;;;;6.15;3.45;;;;;;;;;;5035958;28;20046;-82
2022/03/05 10:01:02;;;;;;;7.97;3.70;;;;;;;;;;5034613;28;20057;-82
2022/03/05 10:03:27;;;;;;;8.55;3.75;;;;;;;;;;5032840;28;20028;-81
2022/03/05 10:06:00;;;;;;;10.32;3.72;;;;;;;;;;5035555;28;20014;-83
2022/03/05 10:08:26;;;;;;;7.63;3.08;;;;;;;;;;5037763;28;20018;-82
2022/03/05 10:10:53;;;;;;;8.10;3.30;;;;;;;;;;5018766;28;20030;-81
2022/03/05 10:13:28;;;;;;;12.90;4.45;;;;;;;;;;5036812;28;20022;-82
2022/03/05 10:15:59;;;;;;;7.22;3.10;;;;;;;;;;5039585;28;20049;-83
2022/03/05 10:18:25;;;;;;;7.90;3.30;;;;;;;;;;5039110;28;20017;-83
2022/03/05 10:20:50;;;;;;;6.80;3.08;;;;;;;;;;5037693;28;19999;-83
2022/03/05 10:23:17;;;;;;;6.88;2.80;;;;;;;;;;5022041;28;20041;-82
2022/03/05 10:25:46;;;;;;;8.77;2.92;;;;;;;;;;5022222;28;20022;-83
2022/03/05 10:28:12;;;;;;;10.02;3.45;;;;;;;;;;5058789;28;20026;-82
2022/03/05 10:30:42;;;;;;;7.50;3.40;;;;;;;;;;5055158;28;20044;-84
2022/03/05 10:33:08;;;;;;;6.97;3.03;;;;;;;;;;5049453;28;20011;-85
2022/03/05 10:35:34;;;;;;;7.30;3.17;;;;;;;;;;5039529;28;20041;-86
2022/03/05 10:37:59;;;;;;;7.32;3.05;;;;;;;;;;5036314;28;20025;-88
2022/03/05 10:40:25;;;;;;;7.35;2.83;;;;;;;;;;5034541;28;20024;-88
2022/03/05 10:42:50;;;;;;;9.32;3.10;;;;;;;;;;5033184;28;20461;-87
2022/03/05 10:45:18;;;;;;;7.53;3.00;;;;;;;;;;5033466;28;20013;-88
2022/03/05 10:47:46;;;;;;;7.18;3.03;;;;;;;;;;5033539;28;20021;-89
2022/03/05 10:50:21;;;;;;;7.18;3.08;;;;;;;;;;5033742;28;20017;-87
2022/03/05 10:52:50;;;;;;;6.55;3.30;;;;;;;;;;5033475;28;20060;-89
2022/03/05 10:55:16;;;;;;;7.38;3.60;;;;;;;;;;5012596;28;20064;-85
2022/03/05 10:57:55;;;;;;;7.25;3.58;;;;;;;;;;5016535;28;20128;-88
2022/03/05 11:00:20;;;;;;;8.35;3.97;;;;;;;;;;5016641;28;20025;-88
2022/03/05 11:02:46;;;;;;;8.93;4.05;;;;;;;;;;5015246;28;20075;-89
2022/03/05 11:05:11;;;;;;;7.95;4.00;;;;;;;;;;5015109;28;20056;-87
2022/03/05 11:07:37;;;;;;;7.90;3.92;;;;;;;;;;5033206;28;20108;-86
2022/03/05 11:10:03;;;;;;;10.65;4.72;;;;;;;;;;5014733;28;20025;-90
2022/03/05 11:12:29;;;;;;;6.63;3.65;;;;;;;;;;5015474;28;20017;-90
2022/03/05 11:14:54;;;;;;;8.75;3.47;;;;;;;;;;5033721;28;20073;-89
2022/03/05 11:17:20;;;;;;;6.20;3.55;;;;;;;;;;5033520;28;20104;-87
2022/03/05 11:19:45;;;;;;;7.32;3.58;;;;;;;;;;5015310;28;20480;-86
2022/03/05 11:22:11;;;;;;;6.47;3.38;;;;;;;;;;5031927;28;20018;-86
2022/03/05 11:24:41;;;;;;;7.78;3.92;;;;;;;;;;5013860;28;20033;-84
2022/03/05 11:27:11;;;;;;;6.32;3.10;;;;;;;;;;5028756;28;20044;-85
2022/03/05 11:29:54;;;;;;;6.13;3.33;;;;;;;;;;5031380;28;20543;-86
2022/03/05 11:32:20;;;;;;;10.98;3.83;;;;;;;;;;5032283;28;20018;-88
2022/03/05 11:34:47;;;;;;;7.45;3.28;;;;;;;;;;5032514;28;20100;-87
2022/03/05 11:37:14;;;;;;;12.75;4.00;;;;;;;;;;5033241;28;20017;-88
2022/03/05 11:39:41;;;;;;;9.13;3.30;;;;;;;;;;5033318;28;20472;-89
2022/03/05 11:42:08;;;;;;;8.70;3.97;;;;;;;;;;5014701;28;20026;-89
2022/03/05 11:44:37;;;;;;;7.13;3.85;;;;;;;;;;5010433;28;20029;-90
2022/03/05 11:47:21;;;;;;;14.00;3.65;;;;;;;;;;5032046;28;20507;-91
2022/03/05 11:50:07;;;;;;;6.40;3.10;;;;;;;;;;5032306;28;20026;-89
2022/03/05 11:52:35;;;;;;;6.55;3.25;;;;;;;;;;5011931;23;20097;-88
2022/03/05 11:55:19;;;;;;;6.45;3.33;;;;;;;;;;4983178;28;20030;-86
2022/03/05 11:57:50;;;;;;;9.45;3.47;;;;;;;;;;4976535;28;20101;-88
2022/03/05 12:00:19;;;;;;;9.80;3.22;;;;;;;;;;4992369;28;20089;-88
2022/03/05 12:02:45;;;;;;;;;;;;;;;;;;4967469;28;20101;-86
2022/03/05 12:05:30;;;;;;;11.20;3.10;;;;;;;;;;4991338;28;19909;-88
2022/03/05 12:07:55;;;;;;;6.28;2.90;;;;;;;;;;4992114;28;20018;-87
2022/03/05 12:10:20;;;;;;;6.47;2.70;;;;;;;;;;4970748;28;20029;-87
2022/03/05 12:12:59;;;;;;;10.38;4.50;;;;;;;;;;4991624;28;20113;-87
2022/03/05 12:15:26;;;;;;;22.92;8.65;;;;;;;;;;4991534;28;20010;-87
2022/03/05 12:17:51;;;;;;;33.47;12.63;;;;;;;;;;4974224;28;20500;-89
2022/03/05 12:20:19;;;;;;;6.22;3.22;;;;;;;;;;4975836;28;20022;-87
2022/03/05 12:22:55;;;;;;;12.00;5.28;;;;;;;;;;4993076;28;20049;-89
2022/03/05 12:25:20;;;;;;;17.45;7.22;;;;;;;;;;4988626;28;20065;-90
2022/03/05 12:27:46;;;;;;;10.88;4.80;;;;;;;;;;4987237;28;20498;-90
2022/03/05 12:30:12;;;;;;;16.77;6.80;;;;;;;;;;4995556;28;20018;-90
2022/03/05 12:32:39;;;;;;;10.45;5.10;;;;;;;;;;4994898;28;20152;-88
2022/03/05 12:35:05;;;;;;;10.60;4.88;;;;;;;;;;4994874;28;20018;-86
2022/03/05 12:37:31;;;;;;;10.88;5.30;;;;;;;;;;5018954;28;20022;-84
2022/03/05 12:39:57;;;;;;;12.10;5.53;;;;;;;;;;4998652;28;20384;-88
2022/03/05 12:42:22;;;;;;;10.90;5.18;;;;;;;;;;5016848;28;20017;-87
2022/03/05 12:44:47;;;;;;;3.90;2.22;;;;;;;;;;4994165;28;20030;-88
2022/03/05 12:47:12;;;;;;;7.57;2.77;;;;;;;;;;5020175;28;20050;-87
2022/03/05 12:49:38;;;;;;;10.90;4.03;;;;;;;;;;5015471;28;20365;-88
2022/03/05 12:52:05;;;;;;;7.68;3.22;;;;;;;;;;5016338;28;20349;-88
2022/03/05 12:54:30;;;;;;;8.38;3.17;;;;;;;;;;4999163;28;20114;-88
2022/03/05 12:56:58;;;;;;;4.65;2.28;;;;;;;;;;5018450;28;20022;-87
2022/03/05 12:59:24;;;;;;;4.63;2.20;;;;;;;;;;5000050;28;20056;-87
2022/03/05 13:01:51;;;;;;;7.32;2.88;;;;;;;;;;4999764;28;20560;-89
2022/03/05 13:04:17;;;;;;;4.15;1.80;;;;;;;;;;4996375;28;20029;-87
2022/03/05 13:06:46;;;;;;;7.05;2.65;;;;;;;;;;4997558;28;20546;-88
2022/03/05 13:09:15;;;;;;;4.15;2.00;;;;;;;;;;4997531;28;20477;-89
2022/03/05 13:11:43;;;;;;;7.65;2.35;;;;;;;;;;4996845;28;20127;-78
2022/03/05 13:14:08;;;;;;;8.27;3.35;;;;;;;;;;4998537;28;20117;-79
2022/03/05 13:16:39;;;;;;;6.57;3.40;;;;;;;;;;5014772;28;20156;-80
2022/03/05 13:19:09;;;;;;;5.45;2.53;;;;;;;;;;5014974;28;20033;-80
2022/03/05 13:21:38;;;;;;;8.82;2.53;;;;;;;;;;4998088;28;20446;-78
2022/03/05 13:24:05;;;;;;;9.35;2.42;;;;;;;;;;5015499;28;20021;-81
2022/03/05 13:26:37;;;;;;;9.50;3.45;;;;;;;;;;5016633;28;20018;-80
2022/03/05 13:29:04;;;;;;;10.32;2.60;;;;;;;;;;5014924;28;20021;-79
2022/03/05 13:31:30;;;;;;;8.30;2.60;;;;;;;;;;4998467;28;20092;-79
2022/03/05 13:33:55;;;;;;;4.13;2.35;;;;;;;;;;5014292;28;20025;-79
2022/03/05 13:36:23;;;;;;;6.88;3.35;;;;;;;;;;5014411;28;20017;-78
2022/03/05 13:38:52;;;;;;;6.35;3.25;;;;;;;;;;4998663;28;20088;-80
2022/03/05 13:41:19;;;;;;;5.30;2.47;;;;;;;;;;4996580;28;20365;-79
2022/03/05 13:43:44;;;;;;;5.57;2.50;;;;;;;;;;4996076;28;20028;-78
2022/03/05 13:46:10;;;;;;;6.30;2.30;;;;;;;;;;5009022;28;20022;-78
2022/03/05 13:48:40;;;;;;;5.55;2.38;;;;;;;;;;5012167;28;20530;-79
2022/03/05 13:51:12;;;;;;;7.30;2.33;;;;;;;;;;4996100;28;20382;-79
2022/03/05 13:53:45;;;;;;;4.82;2.17;;;;;;;;;;5010140;28;20110;-78
2022/03/05 13:56:10;;;;;;;4.68;2.28;;;;;;;;;;4998480;28;20405;-78
2022/03/05 13:58:36;;;;;;;5.18;2.05;;;;;;;;;;5015140;28;20021;-80
2022/03/05 14:01:01;;;;;;;7.18;3.88;;;;;;;;;;5013813;28;20026;-78
2022/03/05 14:03:26;;;;;;;4.82;2.47;;;;;;;;;;5013017;28;20026;-78
2022/03/05 14:05:51;;;;;;;3.80;1.57;;;;;;;;;;5013624;28;20034;-79
2022/03/05 14:08:17;;;;;;;6.75;2.05;;;;;;;;;;4995674;28;20274;-79
2022/03/05 14:10:45;;;;;;;3.78;1.73;;;;;;;;;;5013601;28;20120;-79
2022/03/05 14:13:15;;;;;;;4.82;1.77;;;;;;;;;;5013116;28;20014;-79
2022/03/05 14:15:40;;;;;;;3.60;1.70;;;;;;;;;;5012404;28;20174;-79
2022/03/05 14:18:07;;;;;;;7.72;2.75;;;;;;;;;;4996173;28;20097;-79
2022/03/05 14:20:43;;;;;;;4.35;1.73;;;;;;;;;;4995893;28;20401;-79
2022/03/05 14:23:12;;;;;;;3.97;1.73;;;;;;;;;;5012784;28;20097;-77
2022/03/05 14:25:37;;;;;;;7.72;2.63;;;;;;;;;;5013283;28;20293;-79
2022/03/05 14:28:04;;;;;;;3.47;1.80;;;;;;;;;;5013182;28;20098;-77
2022/03/05 14:30:30;;;;;;;4.38;1.85;;;;;;;;;;4995482;28;20870;-79
2022/03/05 14:32:56;;;;;;;5.35;2.10;;;;;;;;;;5011425;28;20045;-79
2022/03/05 14:35:22;;;;;;;5.15;2.22;;;;;;;;;;5013137;28;20477;-77